sensor_id;sensor_type;location;lat;lon;timestamp;pressure;altitude;pressure_sealevel;temperature;humidity
56038;BME280;41907;47.848;9.000;2023-08-12T00:01:48;96130.66;;;18.47;100.00
56038;BME280;41907;47.848;9.000;2023-08-12T00:04:14;96127.06;;;18.43;100.00
56038;BME280;41907;47.848;9.000;2023-08-12T00:06:40;96123.34;;;18.48;100.00
56038;BME280;41907;47.848;9.000;2023-08-12T00:09:06;96123.00;;;18.49;100.00
56038;BME280;41907;47.848;9.000;2023-08-12T00:11:34;96120.72;;;18.51;100.00
56038;BME280;41907;47.848;9.000;2023-08-12T00:13:59;96122.72;;;18.54;100.00
56038;BME280;41907;47.848;9.000;2023-08-12T00:16:24;96120.19;;;18.46;100.00
56038;BME280;41907;47.848;9.000;2023-08-12T00:18:50;96108.50;;;18.42;100.00
56038;BME280;41907;47.848;9.000;2023-08-12T00:21:15;96106.88;;;18.37;100.00
56038;BME280;41907;47.848;9.000;2023-08-12T00:23:41;96099.34;;;18.31;100.00
56038;BME280;41907;47.848;9.000;2023-08-12T00:26:07;96105.28;;;18.20;100.00
56038;BME280;41907;47.848;9.000;2023-08-12T00:28:33;96104.22;;;18.09;100.00
56038;BME280;41907;47.848;9.000;2023-08-12T00:30:59;96103.34;;;18.05;100.00
56038;BME280;41907;47.848;9.000;2023-08-12T00:33:24;96098.66;;;18.02;100.00
56038;BME280;41907;47.848;9.000;2023-08-12T00:35:49;96105.53;;;18.00;100.00
56038;BME280;41907;47.848;9.000;2023-08-12T00:38:15;96097.31;;;17.96;100.00
56038;BME280;41907;47.848;9.000;2023-08-12T00:40:40;96097.13;;;17.89;100.00
56038;BME280;41907;47.848;9.000;2023-08-12T00:43:05;96095.56;;;17.88;100.00
56038;BME280;41907;47.848;9.000;2023-08-12T00:45:31;96094.00;;;17.87;100.00
56038;BME280;41907;47.848;9.000;2023-08-12T00:47:57;96089.38;;;17.88;100.00
56038;BME280;41907;47.848;9.000;2023-08-12T00:50:22;96093.66;;;17.89;100.00
56038;BME280;41907;47.848;9.000;2023-08-12T00:52:49;96088.50;;;17.83;100.00
56038;BME280;41907;47.848;9.000;2023-08-12T00:55:15;96089.28;;;17.84;100.00
56038;BME280;41907;47.848;9.000;2023-08-12T00:57:41;96090.28;;;17.92;100.00
56038;BME280;41907;47.848;9.000;2023-08-12T01:00:08;96091.47;;;17.94;100.00
56038;BME280;41907;47.848;9.000;2023-08-12T01:02:33;96094.28;;;17.98;100.00
56038;BME280;41907;47.848;9.000;2023-08-12T01:04:59;96090.28;;;17.92;100.00
56038;BME280;41907;47.848;9.000;2023-08-12T01:07:24;96091.41;;;17.91;100.00
56038;BME280;41907;47.848;9.000;2023-08-12T01:09:49;96081.06;;;17.93;100.00
56038;BME280;41907;47.848;9.000;2023-08-12T01:12:27;96082.75;;;17.85;100.00
56038;BME280;41907;47.848;9.000;2023-08-12T01:15:07;96086.16;;;17.82;100.00
56038;BME280;41907;47.848;9.000;2023-08-12T01:17:34;96077.34;;;17.85;100.00
56038;BME280;41907;47.848;9.000;2023-08-12T01:20:01;96076.22;;;17.86;100.00
56038;BME280;41907;47.848;9.000;2023-08-12T01:22:34;96075.88;;;17.88;100.00
56038;BME280;41907;47.848;9.000;2023-08-12T01:25:05;96078.78;;;17.95;100.00
56038;BME280;41907;47.848;9.000;2023-08-12T01:27:30;96080.44;;;17.99;100.00
56038;BME280;41907;47.848;9.000;2023-08-12T01:29:55;96081.22;;;18.00;100.00
56038;BME280;41907;47.848;9.000;2023-08-12T01:36:03;96080.50;;;18.03;100.00
56038;BME280;41907;47.848;9.000;2023-08-12T01:37:57;96080.50;;;18.03;100.00
56038;BME280;41907;47.848;9.000;2023-08-12T01:40:24;96084.88;;;18.07;100.00
56038;BME280;41907;47.848;9.000;2023-08-12T01:42:50;96079.84;;;18.06;100.00
56038;BME280;41907;47.848;9.000;2023-08-12T01:45:18;96079.75;;;18.02;100.00
56038;BME280;41907;47.848;9.000;2023-08-12T01:47:44;96078.59;;;18.03;100.00
56038;BME280;41907;47.848;9.000;2023-08-12T01:50:10;96078.88;;;17.98;100.00
56038;BME280;41907;47.848;9.000;2023-08-12T01:52:35;96076.97;;;17.99;100.00
56038;BME280;41907;47.848;9.000;2023-08-12T01:55:00;96062.66;;;17.82;100.00
56038;BME280;41907;47.848;9.000;2023-08-12T01:57:26;96066.91;;;17.83;100.00
56038;BME280;41907;47.848;9.000;2023-08-12T01:59:51;96073.81;;;17.97;100.00
56038;BME280;41907;47.848;9.000;2023-08-12T02:02:17;96073.56;;;18.02;100.00
56038;BME280;41907;47.848;9.000;2023-08-12T02:04:42;96072.06;;;18.04;100.00
56038;BME280;41907;47.848;9.000;2023-08-12T02:07:09;96070.50;;;18.03;100.00
56038;BME280;41907;47.848;9.000;2023-08-12T02:09:34;96065.91;;;18.04;100.00
56038;BME280;41907;47.848;9.000;2023-08-12T02:12:00;96068.00;;;18.10;100.00
56038;BME280;41907;47.848;9.000;2023-08-12T02:14:25;96068.53;;;18.16;100.00
56038;BME280;41907;47.848;9.000;2023-08-12T02:16:50;96067.91;;;18.22;100.00
56038;BME280;41907;47.848;9.000;2023-08-12T02:19:16;96070.19;;;18.20;100.00
56038;BME280;41907;47.848;9.000;2023-08-12T02:21:42;96070.38;;;18.28;100.00
56038;BME280;41907;47.848;9.000;2023-08-12T02:24:08;96067.38;;;18.33;100.00
56038;BME280;41907;47.848;9.000;2023-08-12T02:26:33;96072.44;;;18.34;100.00
56038;BME280;41907;47.848;9.000;2023-08-12T02:28:59;96058.00;;;18.27;100.00
56038;BME280;41907;47.848;9.000;2023-08-12T02:31:24;96059.41;;;18.20;100.00
56038;BME280;41907;47.848;9.000;2023-08-12T02:33:50;96060.78;;;18.14;100.00
56038;BME280;41907;47.848;9.000;2023-08-12T02:36:16;96053.72;;;18.10;100.00
56038;BME280;41907;47.848;9.000;2023-08-12T02:38:41;96054.41;;;18.07;100.00
56038;BME280;41907;47.848;9.000;2023-08-12T02:41:06;96056.22;;;18.03;100.00
56038;BME280;41907;47.848;9.000;2023-08-12T02:43:32;96054.75;;;18.05;100.00
56038;BME280;41907;47.848;9.000;2023-08-12T02:45:57;96048.66;;;18.08;100.00
56038;BME280;41907;47.848;9.000;2023-08-12T02:48:22;96045.88;;;18.05;100.00
56038;BME280;41907;47.848;9.000;2023-08-12T02:50:48;96045.09;;;18.04;100.00
56038;BME280;41907;47.848;9.000;2023-08-12T02:53:15;96046.59;;;18.02;100.00
56038;BME280;41907;47.848;9.000;2023-08-12T02:55:40;96048.06;;;17.99;100.00
56038;BME280;41907;47.848;9.000;2023-08-12T02:58:06;96046.38;;;17.95;100.00
56038;BME280;41907;47.848;9.000;2023-08-12T03:00:31;96043.28;;;17.93;100.00
56038;BME280;41907;47.848;9.000;2023-08-12T03:02:57;96041.09;;;17.98;100.00
56038;BME280;41907;47.848;9.000;2023-08-12T03:05:22;96039.63;;;18.01;100.00
56038;BME280;41907;47.848;9.000;2023-08-12T03:07:48;96041.09;;;17.98;100.00
56038;BME280;41907;47.848;9.000;2023-08-12T03:10:14;96035.06;;;18.05;100.00
56038;BME280;41907;47.848;9.000;2023-08-12T03:12:39;96040.66;;;18.12;100.00
56038;BME280;41907;47.848;9.000;2023-08-12T03:15:06;96034.72;;;18.06;100.00
56038;BME280;41907;47.848;9.000;2023-08-12T03:17:32;96032.03;;;18.06;100.00
56038;BME280;41907;47.848;9.000;2023-08-12T03:19:58;96032.38;;;18.05;100.00
56038;BME280;41907;47.848;9.000;2023-08-12T03:22:29;96032.66;;;18.00;100.00
56038;BME280;41907;47.848;9.000;2023-08-12T03:24:54;96032.56;;;17.96;100.00
56038;BME280;41907;47.848;9.000;2023-08-12T03:27:19;96025.25;;;17.97;100.00
56038;BME280;41907;47.848;9.000;2023-08-12T03:29:45;96025.91;;;17.94;100.00
56038;BME280;41907;47.848;9.000;2023-08-12T03:32:10;96033.00;;;17.98;100.00
56038;BME280;41907;47.848;9.000;2023-08-12T03:34:36;96029.69;;;18.05;100.00
56038;BME280;41907;47.848;9.000;2023-08-12T03:37:01;96032.31;;;18.01;100.00
56038;BME280;41907;47.848;9.000;2023-08-12T03:39:26;96034.13;;;17.97;100.00
56038;BME280;41907;47.848;9.000;2023-08-12T03:41:52;96027.31;;;18.03;100.00
56038;BME280;41907;47.848;9.000;2023-08-12T03:44:18;96034.13;;;18.13;100.00
56038;BME280;41907;47.848;9.000;2023-08-12T03:46:43;96043.72;;;18.26;100.00
56038;BME280;41907;47.848;9.000;2023-08-12T03:49:08;96045.63;;;18.26;100.00
56038;BME280;41907;47.848;9.000;2023-08-12T03:51:34;96043.38;;;18.28;100.00
56038;BME280;41907;47.848;9.000;2023-08-12T03:53:59;96050.41;;;18.32;100.00
56038;BME280;41907;47.848;9.000;2023-08-12T03:56:25;96040.94;;;18.38;100.00
56038;BME280;41907;47.848;9.000;2023-08-12T03:58:51;96045.97;;;18.40;100.00
56038;BME280;41907;47.848;9.000;2023-08-12T04:01:16;96043.97;;;18.37;100.00
56038;BME280;41907;47.848;9.000;2023-08-12T04:03:41;96051.38;;;18.40;100.00
56038;BME280;41907;47.848;9.000;2023-08-12T04:06:07;96046.41;;;18.42;100.00
56038;BME280;41907;47.848;9.000;2023-08-12T04:08:32;96047.63;;;18.29;100.00
56038;BME280;41907;47.848;9.000;2023-08-12T04:10:58;96047.63;;;18.29;100.00
56038;BME280;41907;47.848;9.000;2023-08-12T04:13:24;96036.06;;;18.28;100.00
56038;BME280;41907;47.848;9.000;2023-08-12T04:15:50;96044.94;;;18.29;100.00
56038;BME280;41907;47.848;9.000;2023-08-12T04:18:16;96050.50;;;18.20;100.00
56038;BME280;41907;47.848;9.000;2023-08-12T04:20:41;96047.53;;;18.25;100.00
56038;BME280;41907;47.848;9.000;2023-08-12T04:23:07;96041.19;;;18.17;100.00
56038;BME280;41907;47.848;9.000;2023-08-12T04:25:32;96050.94;;;18.22;100.00
56038;BME280;41907;47.848;9.000;2023-08-12T04:27:58;96049.22;;;18.30;100.00
56038;BME280;41907;47.848;9.000;2023-08-12T04:30:23;96042.94;;;18.26;100.00
56038;BME280;41907;47.848;9.000;2023-08-12T04:32:49;96042.66;;;18.31;100.00
56038;BME280;41907;47.848;9.000;2023-08-12T04:35:14;96049.78;;;18.23;100.00
56038;BME280;41907;47.848;9.000;2023-08-12T04:37:39;96047.19;;;18.11;100.00
56038;BME280;41907;47.848;9.000;2023-08-12T04:40:05;96049.63;;;18.16;100.00
56038;BME280;41907;47.848;9.000;2023-08-12T04:42:33;96050.41;;;18.32;100.00
56038;BME280;41907;47.848;9.000;2023-08-12T04:44:58;96054.50;;;18.42;100.00
56038;BME280;41907;47.848;9.000;2023-08-12T04:47:23;96051.25;;;18.52;100.00
56038;BME280;41907;47.848;9.000;2023-08-12T04:49:49;96052.41;;;18.51;100.00
56038;BME280;41907;47.848;9.000;2023-08-12T04:52:14;96048.34;;;18.57;100.00
56038;BME280;41907;47.848;9.000;2023-08-12T04:54:40;96047.09;;;18.54;100.00
56038;BME280;41907;47.848;9.000;2023-08-12T04:57:05;96040.25;;;18.57;100.00
56038;BME280;41907;47.848;9.000;2023-08-12T04:59:30;96042.31;;;18.64;100.00
56038;BME280;41907;47.848;9.000;2023-08-12T05:01:56;96042.41;;;18.67;100.00
56038;BME280;41907;47.848;9.000;2023-08-12T05:04:21;96044.03;;;18.72;100.00
56038;BME280;41907;47.848;9.000;2023-08-12T05:06:47;96038.78;;;18.79;100.00
56038;BME280;41907;47.848;9.000;2023-08-12T05:09:12;96043.41;;;18.78;100.00
56038;BME280;41907;47.848;9.000;2023-08-12T05:11:37;96043.34;;;18.75;100.00
56038;BME280;41907;47.848;9.000;2023-08-12T05:14:03;96048.41;;;18.76;100.00
56038;BME280;41907;47.848;9.000;2023-08-12T05:16:28;96049.19;;;18.77;100.00
56038;BME280;41907;47.848;9.000;2023-08-12T05:18:54;96049.53;;;18.75;100.00
56038;BME280;41907;47.848;9.000;2023-08-12T05:21:20;96035.16;;;18.71;100.00
56038;BME280;41907;47.848;9.000;2023-08-12T05:23:45;96041.53;;;18.63;100.00
56038;BME280;41907;47.848;9.000;2023-08-12T05:26:10;96042.81;;;18.69;100.00
56038;BME280;41907;47.848;9.000;2023-08-12T05:28:36;96036.91;;;18.64;100.00
56038;BME280;41907;47.848;9.000;2023-08-12T05:31:01;96046.09;;;18.78;100.00
56038;BME280;41907;47.848;9.000;2023-08-12T05:33:26;96050.63;;;18.90;100.00
56038;BME280;41907;47.848;9.000;2023-08-12T05:35:52;96046.13;;;19.13;100.00
56038;BME280;41907;47.848;9.000;2023-08-12T05:38:18;96046.59;;;19.19;100.00
56038;BME280;41907;47.848;9.000;2023-08-12T05:40:43;96051.19;;;19.15;100.00
56038;BME280;41907;47.848;9.000;2023-08-12T05:43:08;96051.09;;;19.30;100.00
56038;BME280;41907;47.848;9.000;2023-08-12T05:45:34;96050.47;;;19.56;100.00
56038;BME280;41907;47.848;9.000;2023-08-12T05:47:59;96061.28;;;20.63;100.00
56038;BME280;41907;47.848;9.000;2023-08-12T05:50:24;96062.19;;;23.30;87.01
56038;BME280;41907;47.848;9.000;2023-08-12T05:52:50;96062.53;;;24.65;77.03
56038;BME280;41907;47.848;9.000;2023-08-12T05:55:15;96056.50;;;23.56;79.72
56038;BME280;41907;47.848;9.000;2023-08-12T05:57:40;96066.53;;;22.80;84.87
56038;BME280;41907;47.848;9.000;2023-08-12T06:00:06;96066.19;;;22.41;87.23
56038;BME280;41907;47.848;9.000;2023-08-12T06:02:32;96068.59;;;22.05;89.85
56038;BME280;41907;47.848;9.000;2023-08-12T06:04:57;96063.78;;;21.95;89.48
56038;BME280;41907;47.848;9.000;2023-08-12T06:07:22;96062.81;;;21.77;91.27
56038;BME280;41907;47.848;9.000;2023-08-12T06:09:49;96060.13;;;24.06;82.79
56038;BME280;41907;47.848;9.000;2023-08-12T06:12:14;96052.38;;;27.13;65.32
56038;BME280;41907;47.848;9.000;2023-08-12T06:14:40;96070.22;;;29.23;55.73
56038;BME280;41907;47.848;9.000;2023-08-12T06:17:05;96077.13;;;30.46;50.38
56038;BME280;41907;47.848;9.000;2023-08-12T06:19:31;96068.78;;;31.60;45.28
56038;BME280;41907;47.848;9.000;2023-08-12T06:21:56;96077.06;;;32.01;44.94
56038;BME280;41907;47.848;9.000;2023-08-12T06:24:22;96085.72;;;29.33;50.38
56038;BME280;41907;47.848;9.000;2023-08-12T06:26:47;96084.38;;;30.20;48.71
56038;BME280;41907;47.848;9.000;2023-08-12T06:29:12;96079.38;;;31.32;45.88
56038;BME280;41907;47.848;9.000;2023-08-12T06:31:38;96070.13;;;30.94;45.84
56038;BME280;41907;47.848;9.000;2023-08-12T06:34:03;96085.25;;;31.02;46.59
56038;BME280;41907;47.848;9.000;2023-08-12T06:36:29;96076.56;;;32.32;43.52
56038;BME280;41907;47.848;9.000;2023-08-12T06:38:54;96075.06;;;33.03;42.50
56038;BME280;41907;47.848;9.000;2023-08-12T06:41:19;96082.75;;;34.43;37.68
56038;BME280;41907;47.848;9.000;2023-08-12T06:43:44;96095.53;;;34.80;37.22
56038;BME280;41907;47.848;9.000;2023-08-12T06:46:10;96102.47;;;34.94;36.15
56038;BME280;41907;47.848;9.000;2023-08-12T06:48:35;96094.41;;;35.27;36.17
56038;BME280;41907;47.848;9.000;2023-08-12T06:51:00;96105.50;;;35.54;35.27
56038;BME280;41907;47.848;9.000;2023-08-12T06:53:29;96116.38;;;35.21;35.90
56038;BME280;41907;47.848;9.000;2023-08-12T06:55:55;96118.31;;;34.01;38.55
56038;BME280;41907;47.848;9.000;2023-08-12T06:58:20;96105.97;;;34.76;37.50
56038;BME280;41907;47.848;9.000;2023-08-12T07:00:46;96091.91;;;32.96;40.26
56038;BME280;41907;47.848;9.000;2023-08-12T07:03:11;96090.06;;;31.30;43.73
56038;BME280;41907;47.848;9.000;2023-08-12T07:05:37;96083.31;;;29.98;47.10
56038;BME280;41907;47.848;9.000;2023-08-12T07:08:02;96074.63;;;29.17;49.74
56038;BME280;41907;47.848;9.000;2023-08-12T07:10:27;96072.69;;;27.87;54.04
56038;BME280;41907;47.848;9.000;2023-08-12T07:12:53;96068.97;;;26.95;57.70
56038;BME280;41907;47.848;9.000;2023-08-12T07:15:19;96070.47;;;26.55;60.85
56038;BME280;41907;47.848;9.000;2023-08-12T07:17:44;96083.25;;;27.88;56.46
56038;BME280;41907;47.848;9.000;2023-08-12T07:20:10;96087.88;;;30.05;52.70
56038;BME280;41907;47.848;9.000;2023-08-12T07:22:35;96103.75;;;32.84;43.60
56038;BME280;41907;47.848;9.000;2023-08-12T07:25:00;96101.38;;;34.82;39.09
56038;BME280;41907;47.848;9.000;2023-08-12T07:27:27;96099.97;;;35.45;37.70
56038;BME280;41907;47.848;9.000;2023-08-12T07:29:52;96099.63;;;35.70;37.29
56038;BME280;41907;47.848;9.000;2023-08-12T07:32:18;96090.66;;;35.21;36.32
56038;BME280;41907;47.848;9.000;2023-08-12T07:34:44;96080.00;;;32.23;41.88
56038;BME280;41907;47.848;9.000;2023-08-12T07:37:10;96074.91;;;31.67;42.15
56038;BME280;41907;47.848;9.000;2023-08-12T07:39:35;96090.75;;;30.69;47.35
56038;BME280;41907;47.848;9.000;2023-08-12T07:42:00;96093.25;;;29.52;50.05
56038;BME280;41907;47.848;9.000;2023-08-12T07:44:26;96090.03;;;28.64;53.53
56038;BME280;41907;47.848;9.000;2023-08-12T07:46:51;96085.94;;;29.22;53.40
56038;BME280;41907;47.848;9.000;2023-08-12T07:49:16;96081.44;;;31.28;46.66
56038;BME280;41907;47.848;9.000;2023-08-12T07:51:42;96077.38;;;31.62;47.51
56038;BME280;41907;47.848;9.000;2023-08-12T07:54:07;96089.19;;;34.18;40.85
56038;BME280;41907;47.848;9.000;2023-08-12T07:56:32;96098.00;;;34.56;39.69
56038;BME280;41907;47.848;9.000;2023-08-12T07:58:58;96094.50;;;33.25;41.97
56038;BME280;41907;47.848;9.000;2023-08-12T08:01:23;96097.75;;;31.80;44.62
56038;BME280;41907;47.848;9.000;2023-08-12T08:03:49;96087.75;;;30.64;48.66
56038;BME280;41907;47.848;9.000;2023-08-12T08:06:14;96087.31;;;29.74;50.94
56038;BME280;41907;47.848;9.000;2023-08-12T08:08:40;96096.88;;;29.03;54.62
56038;BME280;41907;47.848;9.000;2023-08-12T08:11:05;96102.66;;;28.58;55.80
56038;BME280;41907;47.848;9.000;2023-08-12T08:13:31;96111.34;;;28.26;57.50
56038;BME280;41907;47.848;9.000;2023-08-12T08:15:56;96110.53;;;27.99;58.27
56038;BME280;41907;47.848;9.000;2023-08-12T08:18:22;96114.03;;;27.65;60.74
56038;BME280;41907;47.848;9.000;2023-08-12T08:20:47;96111.75;;;27.23;62.40
56038;BME280;41907;47.848;9.000;2023-08-12T08:23:12;96119.06;;;26.92;65.27
56038;BME280;41907;47.848;9.000;2023-08-12T08:25:38;96099.81;;;26.51;67.89
56038;BME280;41907;47.848;9.000;2023-08-12T08:28:03;96091.38;;;26.27;69.41
56038;BME280;41907;47.848;9.000;2023-08-12T08:30:29;96091.94;;;25.94;70.33
56038;BME280;41907;47.848;9.000;2023-08-12T08:32:54;96100.47;;;26.00;78.58
56038;BME280;41907;47.848;9.000;2023-08-12T08:35:19;96089.53;;;26.00;74.26
56038;BME280;41907;47.848;9.000;2023-08-12T08:37:45;96105.03;;;26.31;73.24
56038;BME280;41907;47.848;9.000;2023-08-12T08:40:10;96116.50;;;26.63;72.73
56038;BME280;41907;47.848;9.000;2023-08-12T08:42:36;96104.31;;;26.75;69.69
56038;BME280;41907;47.848;9.000;2023-08-12T08:45:02;96094.88;;;26.28;72.48
56038;BME280;41907;47.848;9.000;2023-08-12T08:47:31;96094.88;;;26.32;68.47
56038;BME280;41907;47.848;9.000;2023-08-12T08:49:56;96100.34;;;26.32;72.84
56038;BME280;41907;47.848;9.000;2023-08-12T08:52:25;96092.56;;;26.19;74.79
56038;BME280;41907;47.848;9.000;2023-08-12T08:54:51;96103.94;;;26.07;78.05
56038;BME280;41907;47.848;9.000;2023-08-12T08:57:18;96109.81;;;26.06;86.89
56038;BME280;41907;47.848;9.000;2023-08-12T08:59:44;96112.53;;;26.06;83.77
56038;BME280;41907;47.848;9.000;2023-08-12T09:02:17;96119.50;;;26.83;88.51
56038;BME280;41907;47.848;9.000;2023-08-12T09:04:46;96127.88;;;27.55;78.01
56038;BME280;41907;47.848;9.000;2023-08-12T09:07:13;96123.25;;;28.70;76.46
56038;BME280;41907;47.848;9.000;2023-08-12T09:09:45;96128.06;;;29.36;68.72
56038;BME280;41907;47.848;9.000;2023-08-12T09:12:14;96113.16;;;28.63;66.49
56038;BME280;41907;47.848;9.000;2023-08-12T09:14:40;96127.03;;;28.52;67.32
56038;BME280;41907;47.848;9.000;2023-08-12T09:17:06;96129.25;;;28.34;68.17
56038;BME280;41907;47.848;9.000;2023-08-12T09:19:32;96140.59;;;28.06;70.58
56038;BME280;41907;47.848;9.000;2023-08-12T09:21:58;96136.00;;;27.96;72.63
56038;BME280;41907;47.848;9.000;2023-08-12T09:24:27;96131.94;;;28.68;67.88
56038;BME280;41907;47.848;9.000;2023-08-12T09:26:53;96129.25;;;28.88;62.53
56038;BME280;41907;47.848;9.000;2023-08-12T09:29:31;96129.34;;;28.58;65.04
56038;BME280;41907;47.848;9.000;2023-08-12T09:34:35;96137.91;;;28.02;68.18
56038;BME280;41907;47.848;9.000;2023-08-12T09:37:01;96127.66;;;28.37;67.14
56038;BME280;41907;47.848;9.000;2023-08-12T09:39:28;96123.78;;;29.11;69.28
56038;BME280;41907;47.848;9.000;2023-08-12T09:41:55;96123.34;;;29.59;61.33
56038;BME280;41907;47.848;9.000;2023-08-12T09:44:21;96104.34;;;30.24;56.96
56038;BME280;41907;47.848;9.000;2023-08-12T09:46:47;96088.75;;;30.38;54.43
56038;BME280;41907;47.848;9.000;2023-08-12T09:49:13;96083.66;;;29.80;57.53
56038;BME280;41907;47.848;9.000;2023-08-12T09:51:41;96085.72;;;29.96;54.40
56038;BME280;41907;47.848;9.000;2023-08-12T09:54:09;96090.19;;;29.47;57.28
56038;BME280;41907;47.848;9.000;2023-08-12T09:56:39;96094.03;;;29.30;60.93
56038;BME280;41907;47.848;9.000;2023-08-12T09:59:06;96099.84;;;29.12;62.37
56038;BME280;41907;47.848;9.000;2023-08-12T10:01:35;96098.06;;;29.02;62.66
56038;BME280;41907;47.848;9.000;2023-08-12T10:04:00;96089.53;;;28.96;64.33
56038;BME280;41907;47.848;9.000;2023-08-12T10:06:27;96081.44;;;28.35;62.89
56038;BME280;41907;47.848;9.000;2023-08-12T10:08:53;96084.56;;;28.37;63.46
56038;BME280;41907;47.848;9.000;2023-08-12T10:11:18;96088.09;;;29.11;62.01
56038;BME280;41907;47.848;9.000;2023-08-12T10:13:44;96093.66;;;29.51;61.66
56038;BME280;41907;47.848;9.000;2023-08-12T10:16:10;96101.72;;;29.62;61.00
56038;BME280;41907;47.848;9.000;2023-08-12T10:18:38;96112.03;;;29.54;59.82
56038;BME280;41907;47.848;9.000;2023-08-12T10:21:04;96119.75;;;29.43;60.54
56038;BME280;41907;47.848;9.000;2023-08-12T10:23:31;96124.69;;;29.51;60.27
56038;BME280;41907;47.848;9.000;2023-08-12T10:25:57;96121.31;;;29.17;61.15
56038;BME280;41907;47.848;9.000;2023-08-12T10:28:24;96121.38;;;28.90;60.14
56038;BME280;41907;47.848;9.000;2023-08-12T10:30:51;96125.66;;;28.95;59.68
56038;BME280;41907;47.848;9.000;2023-08-12T10:33:17;96131.63;;;28.32;61.04
56038;BME280;41907;47.848;9.000;2023-08-12T10:35:48;96124.59;;;28.01;62.04
56038;BME280;41907;47.848;9.000;2023-08-12T10:38:17;96126.94;;;28.02;62.67
56038;BME280;41907;47.848;9.000;2023-08-12T10:40:43;96126.91;;;27.72;62.34
56038;BME280;41907;47.848;9.000;2023-08-12T10:43:09;96124.66;;;27.63;63.84
56038;BME280;41907;47.848;9.000;2023-08-12T10:45:48;96121.88;;;27.26;65.52
56038;BME280;41907;47.848;9.000;2023-08-12T10:50:49;96113.19;;;26.93;68.22
56038;BME280;41907;47.848;9.000;2023-08-12T10:53:28;96126.06;;;26.96;71.36
56038;BME280;41907;47.848;9.000;2023-08-12T10:56:03;96130.69;;;27.03;75.61
56038;BME280;41907;47.848;9.000;2023-08-12T10:58:33;96142.50;;;26.93;77.80
56038;BME280;41907;47.848;9.000;2023-08-12T11:00:59;96137.16;;;26.75;79.25
56038;BME280;41907;47.848;9.000;2023-08-12T11:03:25;96129.06;;;26.61;77.75
56038;BME280;41907;47.848;9.000;2023-08-12T11:05:50;96129.53;;;26.45;77.08
56038;BME280;41907;47.848;9.000;2023-08-12T11:08:16;96124.97;;;26.28;77.79
56038;BME280;41907;47.848;9.000;2023-08-12T11:10:41;96123.81;;;26.15;78.60
56038;BME280;41907;47.848;9.000;2023-08-12T11:13:08;96119.56;;;26.14;77.21
56038;BME280;41907;47.848;9.000;2023-08-12T11:15:44;96125.44;;;26.05;80.37
56038;BME280;41907;47.848;9.000;2023-08-12T11:18:14;96134.06;;;26.00;80.03
56038;BME280;41907;47.848;9.000;2023-08-12T11:20:40;96145.72;;;26.11;78.05
56038;BME280;41907;47.848;9.000;2023-08-12T11:23:06;96146.84;;;26.17;78.35
56038;BME280;41907;47.848;9.000;2023-08-12T11:25:33;96138.97;;;26.34;76.11
56038;BME280;41907;47.848;9.000;2023-08-12T11:27:59;96140.06;;;26.47;76.00
56038;BME280;41907;47.848;9.000;2023-08-12T11:30:25;96144.91;;;26.84;74.27
56038;BME280;41907;47.848;9.000;2023-08-12T11:32:53;96136.28;;;27.33;74.98
56038;BME280;41907;47.848;9.000;2023-08-12T11:35:22;96116.59;;;27.83;71.17
56038;BME280;41907;47.848;9.000;2023-08-12T11:37:49;96124.03;;;28.13;69.27
56038;BME280;41907;47.848;9.000;2023-08-12T11:40:16;96115.09;;;28.39;66.34
56038;BME280;41907;47.848;9.000;2023-08-12T11:42:44;96111.97;;;28.64;63.69
56038;BME280;41907;47.848;9.000;2023-08-12T11:45:10;96117.06;;;28.39;67.04
56038;BME280;41907;47.848;9.000;2023-08-12T11:47:38;96111.00;;;28.24;67.28
56038;BME280;41907;47.848;9.000;2023-08-12T11:50:09;96112.38;;;28.05;65.69
56038;BME280;41907;47.848;9.000;2023-08-12T11:52:35;96105.28;;;27.77;65.83
56038;BME280;41907;47.848;9.000;2023-08-12T11:55:01;96111.69;;;27.67;66.28
56038;BME280;41907;47.848;9.000;2023-08-12T11:57:27;96111.00;;;27.56;65.74
56038;BME280;41907;47.848;9.000;2023-08-12T11:59:58;96107.38;;;27.66;65.90
56038;BME280;41907;47.848;9.000;2023-08-12T12:02:24;96105.38;;;27.70;67.84
56038;BME280;41907;47.848;9.000;2023-08-12T12:04:51;96110.88;;;27.70;68.27
56038;BME280;41907;47.848;9.000;2023-08-12T12:07:23;96115.97;;;27.68;67.71
56038;BME280;41907;47.848;9.000;2023-08-12T12:09:53;96101.13;;;27.66;67.39
56038;BME280;41907;47.848;9.000;2023-08-12T12:12:25;96109.06;;;27.91;67.35
56038;BME280;41907;47.848;9.000;2023-08-12T12:14:53;96101.47;;;28.02;65.59
56038;BME280;41907;47.848;9.000;2023-08-12T12:17:21;96088.56;;;27.68;68.24
56038;BME280;41907;47.848;9.000;2023-08-12T12:19:51;96097.31;;;27.56;64.83
56038;BME280;41907;47.848;9.000;2023-08-12T12:22:16;96108.03;;;27.40;66.79
56038;BME280;41907;47.848;9.000;2023-08-12T12:24:45;96107.03;;;27.23;67.86
56038;BME280;41907;47.848;9.000;2023-08-12T12:27:13;96093.06;;;27.11;66.81
56038;BME280;41907;47.848;9.000;2023-08-12T12:29:39;96090.22;;;26.77;66.74
56038;BME280;41907;47.848;9.000;2023-08-12T12:32:04;96091.88;;;26.63;66.55
56038;BME280;41907;47.848;9.000;2023-08-12T12:34:30;96081.88;;;26.43;65.63
56038;BME280;41907;47.848;9.000;2023-08-12T12:36:55;96086.16;;;26.44;65.81
56038;BME280;41907;47.848;9.000;2023-08-12T12:39:20;96086.81;;;26.62;65.72
56038;BME280;41907;47.848;9.000;2023-08-12T12:41:48;96091.41;;;26.76;65.11
56038;BME280;41907;47.848;9.000;2023-08-12T12:44:13;96088.88;;;26.99;66.43
56038;BME280;41907;47.848;9.000;2023-08-12T12:46:39;96073.78;;;27.25;63.51
56038;BME280;41907;47.848;9.000;2023-08-12T12:49:04;96059.84;;;27.80;64.26
56038;BME280;41907;47.848;9.000;2023-08-12T12:51:29;96058.69;;;28.08;62.05
56038;BME280;41907;47.848;9.000;2023-08-12T12:53:55;96055.06;;;28.18;57.14
56038;BME280;41907;47.848;9.000;2023-08-12T12:56:20;96050.09;;;27.75;58.03
56038;BME280;41907;47.848;9.000;2023-08-12T12:58:45;96051.53;;;28.18;57.29